Time;durP1;ratioP1;P1;durP2;ratioP2;P2;SDS_P1;SDS_P2;PMS_P1;PMS_P2;Temp;Humidity;BMP_temperature;BMP_pressure;BME280_temperature;BME280_humidity;BME280_pressure;Samples;Min_cycle;Max_cycle;Signal;HPM_P1;HPM_P2
2023/04/14 00:00:25;;;;;;;5.78;4.15;;;;;;;3.94;100.00;100783.56;5077908;28;20048;-61
2023/04/14 00:02:50;;;;;;;8.20;4.43;;;;;;;3.88;100.00;100787.88;5073683;28;20028;-61
2023/04/14 00:05:16;;;;;;;6.72;4.55;;;;;;;3.85;100.00;100788.25;5077208;28;20040;-60
2023/04/14 00:07:41;;;;;;;7.53;4.68;;;;;;;3.83;100.00;100795.75;5083952;28;20043;-60
2023/04/14 00:10:07;;;;;;;9.88;4.60;;;;;;;3.76;100.00;100790.25;5089868;28;20111;-61
2023/04/14 00:12:32;;;;;;;6.32;4.30;;;;;;;3.68;100.00;100790.31;5085910;28;20518;-60
2023/04/14 00:14:57;;;;;;;5.22;3.58;;;;;;;3.59;100.00;100795.00;5091698;28;20054;-61
2023/04/14 00:17:22;;;;;;;5.32;3.97;;;;;;;3.48;100.00;100792.75;5076391;28;20032;-61
2023/04/14 00:19:48;;;;;;;6.95;3.88;;;;;;;3.45;100.00;100797.69;5083797;28;20028;-61
2023/04/14 00:22:13;;;;;;;7.05;4.13;;;;;;;3.42;100.00;100798.09;5083575;28;20123;-61
2023/04/14 00:24:44;;;;;;;8.25;4.07;;;;;;;3.36;100.00;100792.38;5088889;28;20102;-61
2023/04/14 00:27:10;;;;;;;7.30;4.43;;;;;;;3.30;100.00;100790.41;5081019;28;20027;-60
2023/04/14 00:29:37;;;;;;;8.10;4.18;;;;;;;3.31;100.00;100799.38;5084136;28;20115;-60
2023/04/14 00:32:03;;;;;;;6.88;4.28;;;;;;;3.34;100.00;100801.72;5081468;28;20190;-61
2023/04/14 00:34:28;;;;;;;7.55;4.35;;;;;;;3.35;100.00;100795.28;5073033;28;20114;-61
2023/04/14 00:36:53;;;;;;;9.25;4.60;;;;;;;3.34;100.00;100801.72;5068927;28;20116;-61
2023/04/14 00:39:18;;;;;;;7.20;4.20;;;;;;;3.33;100.00;100800.88;5069310;28;20386;-60
2023/04/14 00:41:44;;;;;;;6.38;4.30;;;;;;;3.30;100.00;100800.41;5072911;28;20028;-59
2023/04/14 00:44:09;;;;;;;7.20;3.80;;;;;;;3.23;100.00;100791.31;5076415;28;20044;-60
2023/04/14 00:46:35;;;;;;;7.07;3.97;;;;;;;3.18;100.00;100807.28;5082609;28;20028;-61
2023/04/14 00:49:02;;;;;;;7.35;4.03;;;;;;;3.09;100.00;100804.69;5076814;28;20024;-60
2023/04/14 00:51:27;;;;;;;6.82;4.25;;;;;;;3.05;100.00;100803.34;5071981;28;20061;-61
2023/04/14 00:53:54;;;;;;;6.45;4.63;;;;;;;3.05;100.00;100808.78;5085728;28;20063;-60
2023/04/14 00:56:20;;;;;;;6.93;4.30;;;;;;;3.06;100.00;100807.75;5081672;28;20036;-60
2023/04/14 00:58:45;;;;;;;6.80;4.07;;;;;;;3.07;100.00;100806.72;5078084;28;20017;-61
2023/04/14 01:01:11;;;;;;;8.10;4.28;;;;;;;3.09;100.00;100815.53;5081606;28;20077;-60
2023/04/14 01:03:37;;;;;;;7.20;4.20;;;;;;;3.10;100.00;100817.22;5073651;28;20086;-60
2023/04/14 01:06:02;;;;;;;8.32;4.75;;;;;;;3.08;100.00;100816.53;5081207;28;20409;-61
2023/04/14 01:08:28;;;;;;;7.03;4.20;;;;;;;3.09;100.00;100815.53;5074443;28;20051;-60
2023/04/14 01:11:17;;;;;;;9.18;4.80;;;;;;;3.16;100.00;100825.66;5072784;28;20025;-61
2023/04/14 01:13:54;;;;;;;6.97;4.43;;;;;;;3.12;100.00;100819.72;5074470;28;20486;-61
2023/04/14 01:16:28;;;;;;;9.98;4.38;;;;;;;3.06;100.00;100821.31;5084414;28;20416;-60
2023/04/14 01:19:22;;;;;;;6.82;4.22;;;;;;;3.02;100.00;100817.25;5083982;28;20073;-60
2023/04/14 01:21:53;;;;;;;7.00;3.97;;;;;;;2.91;100.00;100825.00;5087424;28;20042;-60
2023/04/14 01:24:38;;;;;;;5.25;3.97;;;;;;;2.87;100.00;100821.78;5079235;28;20031;-60
2023/04/14 01:27:35;;;;;;;5.82;3.80;;;;;;;2.88;100.00;100823.47;5083576;28;20044;-60
2023/04/14 01:30:22;;;;;;;7.15;4.35;;;;;;;2.86;100.00;100823.66;5078691;28;20363;-61
2023/04/14 01:32:51;;;;;;;6.55;4.00;;;;;;;2.88;100.00;100823.47;5076385;28;20032;-60
2023/04/14 01:35:25;;;;;;;8.48;4.18;;;;;;;2.90;100.00;100826.88;5083712;28;20059;-60
2023/04/14 01:37:59;;;;;;;6.25;4.25;;;;;;;2.90;100.00;100816.03;5076550;28;20108;-60
2023/04/14 01:40:26;;;;;;;7.25;4.18;;;;;;;2.94;100.00;100820.06;5076290;28;20032;-61
2023/04/14 01:42:58;;;;;;;6.47;4.15;;;;;;;2.93;100.00;100822.94;5081325;28;20040;-60
2023/04/14 01:45:27;;;;;;;6.28;4.32;;;;;;;2.93;100.00;100828.34;5079307;28;20167;-61
2023/04/14 01:47:54;;;;;;;7.70;3.97;;;;;;;2.95;100.00;100829.88;5096232;28;20092;-60
2023/04/14 01:50:21;;;;;;;8.38;4.30;;;;;;;2.96;100.00;100828.00;5069905;28;20025;-60
2023/04/14 01:52:52;;;;;;;6.45;3.83;;;;;;;2.94;100.00;100835.47;5073824;28;20157;-60
2023/04/14 01:55:19;;;;;;;7.53;4.15;;;;;;;2.91;100.00;100828.56;5083363;28;20390;-61
2023/04/14 01:57:48;;;;;;;8.20;4.20;;;;;;;2.90;100.00;100829.59;5079288;28;20024;-60
2023/04/14 02:00:16;;;;;;;6.78;3.95;;;;;;;2.87;100.00;100835.34;5072163;28;20507;-60
2023/04/14 02:02:44;;;;;;;8.00;4.28;;;;;;;2.83;100.00;100839.44;5073004;28;20020;-59
2023/04/14 02:05:10;;;;;;;5.68;3.63;;;;;;;2.77;100.00;100840.19;5074971;28;20046;-60
2023/04/14 02:07:36;;;;;;;7.45;3.75;;;;;;;2.65;100.00;100842.47;5073760;28;20116;-60
2023/04/14 02:10:05;;;;;;;8.85;4.20;;;;;;;2.57;100.00;100842.50;5080657;28;20382;-59
2023/04/14 02:12:30;;;;;;;8.82;4.47;;;;;;;2.47;100.00;100842.72;5075396;28;20032;-60
2023/04/14 02:14:58;;;;;;;7.25;3.88;;;;;;;2.43;100.00;100845.97;5083768;28;20459;-61
2023/04/14 02:17:24;;;;;;;7.28;4.20;;;;;;;2.45;100.00;100850.22;5077032;28;20047;-61
2023/04/14 02:19:52;;;;;;;7.10;4.20;;;;;;;2.50;100.00;100850.50;5080323;28;20374;-60
2023/04/14 02:22:17;;;;;;;5.88;3.80;;;;;;;2.50;100.00;100844.25;5080536;28;20121;-60
2023/04/14 02:24:43;;;;;;;7.03;3.63;;;;;;;2.49;100.00;100840.69;5078404;28;20867;-61
2023/04/14 02:27:16;;;;;;;7.13;3.58;;;;;;;2.53;100.00;100842.00;5088603;28;20020;-60
2023/04/14 02:29:47;;;;;;;6.28;3.65;;;;;;;2.47;100.00;100844.59;5084553;28;20461;-60
2023/04/14 02:32:18;;;;;;;6.97;3.78;;;;;;;2.45;100.00;100842.06;5079068;28;20016;-61
2023/04/14 02:34:52;;;;;;;7.85;4.20;;;;;;;2.43;100.00;100849.53;5080670;28;20085;-60
2023/04/14 02:37:22;;;;;;;8.60;4.05;;;;;;;2.37;100.00;100854.81;5076672;28;20150;-60
2023/04/14 02:40:01;;;;;;;5.85;3.60;;;;;;;2.28;100.00;100849.47;5080279;28;20027;-60
2023/04/14 02:42:29;;;;;;;6.53;3.58;;;;;;;2.26;100.00;100856.06;5079763;28;20036;-60
2023/04/14 02:45:08;;;;;;;5.97;3.80;;;;;;;2.24;100.00;100858.97;5080504;28;20024;-60
2023/04/14 02:47:39;;;;;;;8.23;3.85;;;;;;;2.20;100.00;100873.88;5086901;28;20039;-60
2023/04/14 02:50:10;;;;;;;7.45;4.05;;;;;;;2.20;100.00;100873.03;5080436;28;20028;-60
2023/04/14 02:52:37;;;;;;;8.25;3.60;;;;;;;2.25;100.00;100870.63;5085551;28;20027;-60
2023/04/14 02:55:05;;;;;;;6.65;4.05;;;;;;;2.26;100.00;100866.91;5073702;28;20131;-60
2023/04/14 02:57:32;;;;;;;6.47;3.63;;;;;;;2.28;100.00;100871.13;5083377;28;20094;-60
2023/04/14 02:59:57;;;;;;;5.70;3.78;;;;;;;2.30;100.00;100870.94;5076691;28;20020;-60
2023/04/14 03:02:24;;;;;;;7.22;3.60;;;;;;;2.27;100.00;100866.72;5078135;28;20050;-60
2023/04/14 03:04:50;;;;;;;6.40;3.53;;;;;;;2.29;100.00;100869.28;5082880;28;20363;-60
2023/04/14 03:07:18;;;;;;;6.13;3.90;;;;;;;2.25;100.00;100876.06;5075806;28;20382;-60
2023/04/14 03:09:46;;;;;;;6.40;3.78;;;;;;;2.19;100.00;100874.06;5087755;28;20066;-60
2023/04/14 03:12:14;;;;;;;7.03;3.50;;;;;;;2.08;100.00;100878.84;5078129;28;20028;-60
2023/04/14 03:14:41;;;;;;;5.65;3.75;;;;;;;2.03;100.00;100877.66;5082708;28;20028;-60
2023/04/14 03:17:07;;;;;;;6.90;3.58;;;;;;;2.01;100.00;100883.25;5084861;28;20110;-61
2023/04/14 03:19:33;;;;;;;7.85;4.00;;;;;;;2.02;100.00;100884.91;5081185;28;20115;-60
2023/04/14 03:21:59;;;;;;;7.32;3.92;;;;;;;2.04;100.00;100877.47;5074264;28;20037;-60
2023/04/14 03:24:29;;;;;;;6.63;3.67;;;;;;;2.09;100.00;100871.53;5079894;28;20025;-60
2023/04/14 03:27:00;;;;;;;5.90;3.78;;;;;;;2.13;100.00;100874.72;5086878;28;20016;-60
2023/04/14 03:29:31;;;;;;;6.40;4.05;;;;;;;2.15;100.00;100873.56;5077445;28;20082;-60
2023/04/14 03:32:00;;;;;;;6.97;3.50;;;;;;;2.16;100.00;100877.09;5083488;28;20028;-60
2023/04/14 03:34:31;;;;;;;8.30;4.47;;;;;;;2.10;100.00;100875.09;5081488;28;20064;-60
2023/04/14 03:36:58;;;;;;;6.10;3.85;;;;;;;2.06;100.00;100877.31;5076726;28;20482;-60
2023/04/14 03:39:29;;;;;;;8.13;3.83;;;;;;;2.05;100.00;100876.47;5077669;28;20074;-61
2023/04/14 03:41:56;;;;;;;7.45;4.07;;;;;;;2.07;100.00;100871.69;5088603;28;20055;-61
2023/04/14 03:44:24;;;;;;;6.43;3.63;;;;;;;2.08;100.00;100876.13;5078466;28;20051;-60
2023/04/14 03:46:50;;;;;;;6.70;4.15;;;;;;;2.11;100.00;100868.66;5078693;28;20024;-60
2023/04/14 03:49:17;;;;;;;6.32;3.92;;;;;;;2.11;100.00;100874.06;5074771;28;20031;-62
2023/04/14 03:51:50;;;;;;;7.82;4.07;;;;;;;2.13;100.00;100877.44;5082529;28;20386;-61
2023/04/14 03:54:17;;;;;;;7.35;3.80;;;;;;;2.18;100.00;100880.47;5082521;28;20020;-61
2023/04/14 03:56:46;;;;;;;7.53;4.07;;;;;;;2.17;100.00;100884.19;5082653;28;20020;-61
2023/04/14 03:59:15;;;;;;;6.90;3.88;;;;;;;2.14;100.00;100884.56;5083003;28;20020;-60
2023/04/14 04:01:41;;;;;;;6.88;4.00;;;;;;;2.16;100.00;100885.22;5071945;28;20039;-60
2023/04/14 04:04:07;;;;;;;6.78;3.92;;;;;;;2.13;100.00;100886.44;5075311;28;20027;-60
2023/04/14 04:06:33;;;;;;;9.32;3.80;;;;;;;2.12;100.00;100882.00;5076620;28;20036;-60
2023/04/14 04:09:00;;;;;;;6.70;3.47;;;;;;;2.06;100.00;100882.72;5074200;28;20074;-60
2023/04/14 04:11:27;;;;;;;8.53;4.07;;;;;;;2.01;100.00;100885.94;5072808;28;20028;-60
2023/04/14 04:13:55;;;;;;;6.30;3.63;;;;;;;1.99;100.00;100887.16;5075237;28;20392;-60
2023/04/14 04:16:21;;;;;;;5.85;3.67;;;;;;;1.95;100.00;100892.06;5077787;28;20409;-61
2023/04/14 04:18:50;;;;;;;8.50;4.10;;;;;;;1.90;100.00;100894.44;5078513;28;20029;-60
2023/04/14 04:21:17;;;;;;;7.18;3.70;;;;;;;1.81;100.00;100901.75;5076121;28;20099;-60
2023/04/14 04:23:49;;;;;;;6.40;3.67;;;;;;;1.80;100.00;100901.91;5077577;28;20039;-61
2023/04/14 04:26:15;;;;;;;7.75;3.90;;;;;;;1.79;100.00;100901.06;5079901;28;20755;-61
2023/04/14 04:28:41;;;;;;;8.15;4.03;;;;;;;1.79;100.00;100900.25;5080538;28;20073;-60
2023/04/14 04:31:08;;;;;;;7.15;4.07;;;;;;;1.81;100.00;100906.31;5079750;28;20720;-60
2023/04/14 04:33:34;;;;;;;7.03;3.58;;;;;;;1.78;100.00;100899.41;5078733;28;20032;-60
2023/04/14 04:36:01;;;;;;;8.57;4.28;;;;;;;1.75;100.00;100898.88;5077485;28;20039;-60
2023/04/14 04:38:27;;;;;;;7.25;4.30;;;;;;;1.77;100.00;100899.53;5072483;28;20383;-60
2023/04/14 04:40:52;;;;;;;8.27;4.70;;;;;;;1.77;100.00;100903.13;5076087;28;20044;-60
2023/04/14 04:43:20;;;;;;;8.70;4.32;;;;;;;1.81;100.00;100907.16;5084892;28;20043;-60
2023/04/14 04:45:50;;;;;;;;;;;;;;;1.88;100.00;100901.91;5083871;28;20078;-60
2023/04/14 04:48:16;;;;;;;9.07;4.43;;;;;;;1.88;100.00;100906.50;5076330;28;20406;-60
2023/04/14 04:50:41;;;;;;;8.25;3.97;;;;;;;1.91;100.00;100909.69;5054381;28;20052;-60
2023/04/14 04:53:06;;;;;;;9.50;4.28;;;;;;;1.95;100.00;100902.06;5070652;28;20034;-60
2023/04/14 04:55:31;;;;;;;8.07;4.35;;;;;;;2.00;100.00;100900.50;5077188;28;20031;-60
2023/04/14 04:57:57;;;;;;;7.43;3.97;;;;;;;1.99;100.00;100906.13;5081696;28;20055;-60
2023/04/14 05:00:24;;;;;;;7.53;3.72;;;;;;;1.97;100.00;100894.59;5083489;28;20035;-60
2023/04/14 05:02:50;;;;;;;8.40;3.95;;;;;;;1.96;100.00;100901.88;5080383;28;20077;-60
2023/04/14 05:05:15;;;;;;;5.57;3.45;;;;;;;1.94;100.00;100897.66;5076168;28;20380;-60
2023/04/14 05:07:41;;;;;;;7.05;3.83;;;;;;;1.93;100.00;100891.41;5072765;28;20055;-60
2023/04/14 05:10:07;;;;;;;8.40;3.97;;;;;;;1.93;100.00;100890.56;5074853;28;20031;-60
2023/04/14 05:12:32;;;;;;;7.63;4.15;;;;;;;1.93;100.00;100890.56;5071005;28;20788;-59
2023/04/14 05:14:57;;;;;;;8.10;4.07;;;;;;;1.93;100.00;100885.16;5065123;28;20029;-60
2023/04/14 05:17:22;;;;;;;8.30;4.20;;;;;;;1.97;100.00;100889.19;5071905;28;20040;-59
2023/04/14 05:19:48;;;;;;;8.18;4.78;;;;;;;2.05;100.00;100903.53;5085593;28;20031;-60
2023/04/14 05:22:13;;;;;;;7.60;4.50;;;;;;;2.11;100.00;100902.00;5085258;28;20038;-61
2023/04/14 05:24:38;;;;;;;7.60;4.40;;;;;;;2.13;100.00;100894.56;5086953;28;20020;-60
2023/04/14 05:27:04;;;;;;;8.57;4.35;;;;;;;2.19;100.00;100898.44;5086749;28;20032;-60
2023/04/14 05:29:30;;;;;;;7.45;4.10;;;;;;;2.26;100.00;100896.72;5085948;28;20024;-61
2023/04/14 05:31:55;;;;;;;6.03;3.47;;;;;;;2.31;100.00;100897.03;5086783;28;20110;-60
2023/04/14 05:34:20;;;;;;;7.03;4.55;;;;;;;2.38;100.00;100891.72;5086136;28;20035;-60
2023/04/14 05:36:46;;;;;;;7.47;3.90;;;;;;;2.47;100.00;100891.53;5086952;28;20083;-60
2023/04/14 05:39:12;;;;;;;7.70;3.92;;;;;;;2.55;100.00;100887.94;5086318;28;20036;-60
2023/04/14 05:41:37;;;;;;;7.68;4.72;;;;;;;2.63;100.00;100885.16;5083007;28;20097;-60
2023/04/14 05:44:03;;;;;;;5.68;3.90;;;;;;;2.69;100.00;100883.63;5083907;28;20490;-59
2023/04/14 05:46:28;;;;;;;8.18;4.22;;;;;;;2.71;100.00;100889.72;5083200;28;20036;-59
2023/04/14 05:48:53;;;;;;;8.30;4.35;;;;;;;2.77;100.00;100891.72;5084262;28;20028;-59
2023/04/14 05:51:18;;;;;;;7.50;4.47;;;;;;;2.81;100.00;100895.75;5083407;28;20024;-58
2023/04/14 05:53:44;;;;;;;8.02;4.28;;;;;;;2.89;100.00;100893.00;5083789;28;20028;-61
2023/04/14 05:56:10;;;;;;;7.13;4.53;;;;;;;2.94;100.00;100890.59;5084705;28;20020;-59
2023/04/14 05:58:36;;;;;;;7.72;4.10;;;;;;;3.05;100.00;100892.03;5081594;28;20028;-58
2023/04/14 06:01:02;;;;;;;7.50;4.47;;;;;;;3.13;100.00;100897.38;5083243;28;20479;-59
2023/04/14 06:03:28;;;;;;;6.85;4.70;;;;;;;3.35;100.00;100895.72;5101090;28;20040;-60
2023/04/14 06:05:54;;;;;;;7.40;4.30;;;;;;;3.60;100.00;100890.91;5097092;28;20085;-60
2023/04/14 06:08:19;;;;;;;7.60;4.07;;;;;;;3.74;100.00;100891.94;5092446;28;20020;-59
2023/04/14 06:10:45;;;;;;;9.90;4.18;;;;;;;3.81;100.00;100885.59;5103407;28;20023;-60
2023/04/14 06:13:11;;;;;;;7.32;4.43;;;;;;;3.90;100.00;100883.63;5101300;28;20074;-59
2023/04/14 06:15:36;;;;;;;9.10;4.20;;;;;;;4.01;100.00;100885.91;5088672;28;20285;-60
2023/04/14 06:18:01;;;;;;;10.50;4.32;;;;;;;4.15;100.00;100882.31;5100230;28;20031;-59
2023/04/14 06:20:26;;;;;;;7.43;4.15;;;;;;;4.33;100.00;100881.09;5103192;28;20304;-59
2023/04/14 06:22:52;;;;;;;8.77;4.35;;;;;;;4.53;100.00;100876.75;5083794;28;20387;-60
2023/04/14 06:25:17;;;;;;;8.82;4.30;;;;;;;4.76;100.00;100881.19;5092938;28;20023;-59
2023/04/14 06:27:42;;;;;;;8.18;4.13;;;;;;;4.96;100.00;100876.81;5092066;28;20130;-59
2023/04/14 06:30:08;;;;;;;7.07;3.97;;;;;;;5.16;100.00;100874.28;5100464;28;20023;-59
2023/04/14 06:32:33;;;;;;;7.82;4.00;;;;;;;5.31;100.00;100869.63;5099578;28;20689;-59
2023/04/14 06:34:59;;;;;;;7.80;3.70;;;;;;;5.47;100.00;100876.66;5100174;28;20030;-59
2023/04/14 06:37:24;;;;;;;7.13;4.20;;;;;;;5.62;100.00;100884.75;5101171;28;20042;-59
2023/04/14 06:39:49;;;;;;;7.18;3.92;;;;;;;5.69;100.00;100869.31;5087300;28;20028;-59
2023/04/14 06:42:15;;;;;;;6.30;3.58;;;;;;;5.96;100.00;100876.66;5086973;28;20020;-59
2023/04/14 06:44:40;;;;;;;6.65;3.72;;;;;;;6.46;100.00;100876.50;5101271;28;20043;-59
2023/04/14 06:47:06;;;;;;;9.43;4.05;;;;;;;6.87;99.86;100875.63;5097818;28;20076;-59
2023/04/14 06:49:31;;;;;;;7.65;3.97;;;;;;;7.39;97.64;100872.13;5075901;28;20335;-59
2023/04/14 06:51:56;;;;;;;7.10;3.42;;;;;;;8.07;94.25;100871.88;5081828;28;20620;-61
2023/04/14 06:54:22;;;;;;;7.40;3.53;;;;;;;8.20;90.27;100874.56;5088201;28;20031;-59
2023/04/14 06:56:47;;;;;;;8.38;3.28;;;;;;;7.94;89.83;100871.88;5084020;28;20019;-60
2023/04/14 06:59:12;;;;;;;6.80;3.28;;;;;;;7.70;89.52;100868.75;5084819;28;20324;-61
2023/04/14 07:01:37;;;;;;;8.40;3.35;;;;;;;7.69;89.92;100861.63;5090198;28;20533;-61
2023/04/14 07:04:03;;;;;;;6.15;3.35;;;;;;;7.95;89.62;100863.47;5088556;28;20032;-60
2023/04/14 07:06:28;;;;;;;7.50;3.20;;;;;;;8.76;86.25;100857.53;5092480;28;20019;-61
2023/04/14 07:08:55;;;;;;;6.35;3.58;;;;;;;9.78;86.59;100847.31;5091050;28;20024;-60
2023/04/14 07:11:20;;;;;;;5.63;2.92;;;;;;;10.99;79.89;100847.59;5096015;28;20101;-61
2023/04/14 07:13:45;;;;;;;5.90;2.80;;;;;;;12.17;72.88;100839.28;5091860;28;20490;-61
2023/04/14 07:16:11;;;;;;;5.90;2.97;;;;;;;12.51;71.53;100838.59;5092429;28;20028;-60
2023/04/14 07:18:37;;;;;;;6.13;2.72;;;;;;;12.79;69.15;100835.88;5075768;28;20025;-61
2023/04/14 07:21:02;;;;;;;5.45;3.38;;;;;;;12.87;67.71;100845.66;5068318;28;20491;-60
2023/04/14 07:23:27;;;;;;;6.70;2.80;;;;;;;14.06;66.22;100847.47;5067356;28;20051;-60
2023/04/14 07:25:57;;;;;;;5.60;2.70;;;;;;;15.43;57.87;100846.34;5049201;28;20036;-60
2023/04/14 07:28:23;;;;;;;5.65;2.70;;;;;;;16.32;53.21;100839.25;5065779;28;20036;-60
2023/04/14 07:30:50;;;;;;;5.15;2.70;;;;;;;16.47;52.57;100846.81;5069375;28;20052;-60
2023/04/14 07:33:20;;;;;;;6.97;3.25;;;;;;;16.27;54.28;100840.06;5065877;28;20036;-60
2023/04/14 07:35:47;;;;;;;6.38;2.92;;;;;;;15.56;53.97;100837.63;5067198;28;21263;-60
2023/04/14 07:38:12;;;;;;;4.68;2.55;;;;;;;15.17;55.91;100838.91;5072839;28;20107;-61
2023/04/14 07:40:37;;;;;;;6.25;2.67;;;;;;;14.91;56.30;100829.50;5073867;28;20124;-61
2023/04/14 07:43:03;;;;;;;7.63;2.90;;;;;;;15.30;55.74;100831.00;5068777;28;20495;-61
2023/04/14 07:45:28;;;;;;;4.70;2.75;;;;;;;15.62;54.76;100834.88;5072827;28;20024;-61
2023/04/14 07:47:54;;;;;;;4.43;2.13;;;;;;;15.19;53.73;100823.69;5077421;28;20024;-61
2023/04/14 07:50:19;;;;;;;4.90;2.42;;;;;;;16.68;51.35;100829.16;5076386;28;20029;-61
2023/04/14 07:52:45;;;;;;;4.93;2.28;;;;;;;17.08;49.58;100827.63;5067915;28;20029;-61
2023/04/14 07:55:10;;;;;;;6.03;2.13;;;;;;;17.13;49.02;100824.84;5068343;28;20129;-61
2023/04/14 07:57:35;;;;;;;4.18;2.10;;;;;;;16.73;50.00;100823.66;5072463;28;20024;-61
2023/04/14 08:00:01;;;;;;;5.35;2.38;;;;;;;16.02;50.28;100821.38;5077713;28;20020;-60
2023/04/14 08:02:26;;;;;;;5.18;1.90;;;;;;;15.50;52.53;100821.22;5073080;28;20135;-61
2023/04/14 08:04:52;;;;;;;4.43;2.30;;;;;;;15.10;53.55;100813.38;5073613;28;20447;-61
2023/04/14 08:07:17;;;;;;;4.28;1.75;;;;;;;14.47;55.04;100818.44;5079971;28;20286;-61
2023/04/14 08:09:43;;;;;;;5.13;2.15;;;;;;;14.01;56.97;100828.88;5076483;28;20028;-60
2023/04/14 08:12:08;;;;;;;5.15;2.20;;;;;;;13.82;58.85;100828.31;5081645;28;20032;-60
2023/04/14 08:14:33;;;;;;;5.82;2.22;;;;;;;13.34;59.42;100824.25;5070425;28;20035;-61
2023/04/14 08:16:58;;;;;;;6.77;2.40;;;;;;;13.17;62.26;100824.19;5075845;28;20035;-61
2023/04/14 08:19:24;;;;;;;7.10;2.10;;;;;;;13.16;58.13;100835.47;5069410;28;20805;-60
2023/04/14 08:21:50;;;;;;;3.97;1.85;;;;;;;13.28;59.66;100828.00;5076524;28;20328;-60
2023/04/14 08:24:16;;;;;;;5.43;1.90;;;;;;;12.97;60.67;100838.41;5071574;28;20103;-60
2023/04/14 08:26:41;;;;;;;3.78;1.95;;;;;;;12.52;58.65;100826.50;5071578;28;20119;-61
2023/04/14 08:29:06;;;;;;;6.15;2.13;;;;;;;12.28;60.67;100829.31;5080648;28;20027;-61
2023/04/14 08:31:32;;;;;;;5.78;1.90;;;;;;;12.10;60.69;100829.47;5057899;28;20024;-61
2023/04/14 08:33:57;;;;;;;5.32;1.88;;;;;;;12.16;60.23;100828.50;5061921;28;20028;-60
2023/04/14 08:36:22;;;;;;;4.57;2.17;;;;;;;12.77;59.77;100824.25;5069898;28;20113;-61
2023/04/14 08:38:48;;;;;;;4.75;1.90;;;;;;;13.48;57.10;100822.84;5066220;28;20055;-60
2023/04/14 08:41:16;;;;;;;5.20;1.95;;;;;;;14.23;55.10;100820.63;5074322;28;20029;-61
2023/04/14 08:43:41;;;;;;;3.85;1.85;;;;;;;15.01;52.90;100813.84;5073661;28;20040;-61
2023/04/14 08:46:10;;;;;;;4.57;1.88;;;;;;;15.77;52.34;100823.97;5068650;28;20033;-61
2023/04/14 08:48:38;;;;;;;5.50;1.70;;;;;;;15.49;50.60;100817.59;5066935;28;20040;-60
2023/04/14 08:51:13;;;;;;;5.17;1.83;;;;;;;15.68;53.45;100823.63;5074508;28;20439;-60
2023/04/14 08:53:44;;;;;;;4.07;1.58;;;;;;;15.81;48.99;100825.94;5071521;28;20294;-61
2023/04/14 08:56:12;;;;;;;4.63;1.85;;;;;;;16.79;47.50;100818.97;5070335;28;20367;-60
2023/04/14 08:58:39;;;;;;;3.65;1.70;;;;;;;17.86;48.15;100819.09;5080144;28;20052;-61
2023/04/14 09:01:04;;;;;;;4.47;1.55;;;;;;;18.69;40.70;100823.31;5067083;28;20475;-61
2023/04/14 09:03:30;;;;;;;4.22;1.60;;;;;;;18.65;41.03;100818.28;5077762;28;20028;-61
2023/04/14 09:05:56;;;;;;;2.65;1.55;;;;;;;19.15;40.03;100816.34;5070406;28;20020;-61
2023/04/14 09:08:22;;;;;;;3.10;1.50;;;;;;;20.52;39.87;100809.81;5065066;28;20032;-61
2023/04/14 09:10:48;;;;;;;4.03;1.50;;;;;;;20.85;34.90;100813.56;5072464;28;20025;-61
2023/04/14 09:13:15;;;;;;;3.10;1.25;;;;;;;21.61;35.43;100806.00;5072251;28;20368;-61
2023/04/14 09:15:41;;;;;;;2.70;1.17;;;;;;;22.27;32.24;100814.00;5071574;28;20662;-61
2023/04/14 09:18:06;;;;;;;4.25;1.13;;;;;;;22.25;31.30;100810.72;5066992;28;20035;-62
2023/04/14 09:20:32;;;;;;;3.13;1.27;;;;;;;21.42;31.75;100804.06;5075519;28;20398;-61
2023/04/14 09:22:57;;;;;;;2.50;1.05;;;;;;;21.11;33.78;100812.06;5074609;28;20024;-61
2023/04/14 09:25:22;;;;;;;3.10;0.95;;;;;;;20.79;32.99;100811.97;5077605;28;20068;-61
2023/04/14 09:27:48;;;;;;;3.05;1.23;;;;;;;20.56;32.71;100811.69;5072603;28;20036;-61
2023/04/14 09:30:16;;;;;;;3.13;1.30;;;;;;;20.76;32.17;100813.41;5074071;28;20067;-61
2023/04/14 09:32:43;;;;;;;3.05;1.38;;;;;;;20.91;33.57;100801.19;5073256;28;20020;-61
2023/04/14 09:35:12;;;;;;;3.55;1.20;;;;;;;21.34;32.96;100803.91;5074534;28;20393;-61
2023/04/14 09:37:47;;;;;;;3.35;1.33;;;;;;;22.05;33.03;100802.69;5070603;28;20038;-61
2023/04/14 09:40:29;;;;;;;4.53;1.58;;;;;;;22.22;32.66;100800.13;5068093;28;20086;-61
2023/04/14 09:42:55;;;;;;;3.30;1.30;;;;;;;21.35;31.61;100786.03;5075478;28;20043;-61
2023/04/14 09:45:21;;;;;;;4.10;1.40;;;;;;;20.81;32.38;100782.63;5075661;28;20029;-61
2023/04/14 09:47:47;;;;;;;3.50;1.25;;;;;;;20.68;32.71;100787.00;5075294;28;20020;-61
2023/04/14 09:50:13;;;;;;;5.03;1.45;;;;;;;20.51;33.48;100785.81;5073081;28;20064;-60
2023/04/14 09:52:40;;;;;;;2.75;1.38;;;;;;;21.21;32.86;100786.75;5076073;28;20059;-61
2023/04/14 09:55:09;;;;;;;4.03;1.48;;;;;;;21.71;31.69;100778.69;5069542;28;20037;-61
2023/04/14 09:57:36;;;;;;;3.55;1.23;;;;;;;21.57;33.24;100780.63;5064455;28;20028;-61
2023/04/14 10:00:04;;;;;;;2.83;1.17;;;;;;;21.97;32.71;100783.81;5067900;28;20048;-61
2023/04/14 10:02:30;;;;;;;3.67;1.60;;;;;;;21.89;31.32;100774.16;5066934;28;20072;-61
2023/04/14 10:05:05;;;;;;;4.65;1.30;;;;;;;19.95;35.28;100776.13;5076037;28;20470;-61
2023/04/14 10:07:30;;;;;;;3.65;1.20;;;;;;;18.59;36.34;100776.84;5071706;28;20036;-61
2023/04/14 10:09:56;;;;;;;5.50;1.45;;;;;;;17.83;39.21;100775.19;5072678;28;20729;-61
2023/04/14 10:12:21;;;;;;;3.67;1.33;;;;;;;19.58;35.96;100765.63;5069101;28;20367;-61
2023/04/14 10:14:46;;;;;;;7.13;1.55;;;;;;;20.44;34.45;100752.69;5072917;28;20402;-61
2023/04/14 10:17:12;;;;;;;3.42;1.30;;;;;;;20.28;33.33;100765.19;5080669;28;20020;-61
2023/04/14 10:19:38;;;;;;;2.85;1.30;;;;;;;18.74;35.78;100757.34;5071704;28;20041;-61
2023/04/14 10:22:06;;;;;;;4.22;1.30;;;;;;;18.17;37.71;100757.88;5073891;28;20040;-61
2023/04/14 10:24:32;;;;;;;4.05;1.38;;;;;;;20.18;35.50;100744.66;5075672;28;20040;-60
2023/04/14 10:27:02;;;;;;;4.80;1.60;;;;;;;21.27;32.71;100744.78;5074000;28;20433;-61
2023/04/14 10:29:28;;;;;;;3.30;1.40;;;;;;;22.36;31.08;100746.97;5073006;28;20030;-61
2023/04/14 10:32:09;;;;;;;4.07;1.50;;;;;;;22.66;30.88;100737.06;5072742;28;20116;-61
2023/04/14 10:34:37;;;;;;;2.53;1.00;;;;;;;23.52;29.77;100731.34;5077924;28;20033;-62
2023/04/14 10:37:15;;;;;;;3.03;1.10;;;;;;;23.27;28.85;100729.22;5081028;28;20034;-61
2023/04/14 10:39:41;;;;;;;;;;;;;;;22.74;31.68;100743.88;5088708;28;20038;-61
2023/04/14 10:42:07;;;;;;;6.03;1.70;;;;;;;19.92;32.10;100752.47;5070671;28;20350;-61
2023/04/14 10:44:34;;;;;;;3.17;1.23;;;;;;;18.51;36.18;100747.72;5068989;28;20040;-61
2023/04/14 10:47:01;;;;;;;3.63;1.23;;;;;;;18.07;36.84;100747.63;5071178;28;20515;-61
2023/04/14 10:49:31;;;;;;;3.57;1.30;;;;;;;19.37;34.62;100728.75;5070633;28;20068;-61
2023/04/14 10:52:18;;;;;;;4.22;1.20;;;;;;;20.70;31.73;100728.06;5068878;28;20032;-60
2023/04/14 10:55:06;;;;;;;4.55;1.17;;;;;;;20.85;32.25;100727.03;5074399;28;20032;-61
2023/04/14 10:57:39;;;;;;;3.97;1.20;;;;;;;20.66;33.79;100729.81;5081783;28;20028;-60
2023/04/14 11:00:22;;;;;;;2.80;1.10;;;;;;;21.04;32.61;100730.63;5078425;28;20039;-60
2023/04/14 11:02:55;;;;;;;3.50;1.30;;;;;;;20.10;32.54;100725.78;5081287;28;20550;-61
2023/04/14 11:05:20;;;;;;;4.95;1.70;;;;;;;20.98;32.47;100710.34;5080107;28;20027;-61
2023/04/14 11:07:48;;;;;;;3.53;1.38;;;;;;;20.26;34.10;100715.25;5079846;28;20375;-61
2023/04/14 11:10:16;;;;;;;3.13;1.35;;;;;;;20.54;33.37;100707.94;5081909;28;20012;-62
2023/04/14 11:12:42;;;;;;;;;;;;;;;21.73;32.66;100716.88;5074727;28;20045;-61
2023/04/14 11:15:08;;;;;;;3.25;1.20;;;;;;;21.40;29.91;100710.50;5073896;28;20510;-60
2023/04/14 11:17:37;;;;;;;3.22;1.30;;;;;;;22.02;31.03;100716.59;5075430;28;20032;-61
2023/04/14 11:20:13;;;;;;;3.50;1.27;;;;;;;21.56;32.00;100711.88;5068909;28;20519;-60
2023/04/14 11:22:47;;;;;;;3.58;1.20;;;;;;;21.06;31.81;100714.41;5076655;28;20040;-61
2023/04/14 11:25:15;;;;;;;5.53;1.30;;;;;;;20.87;33.58;100710.78;5071247;28;20029;-61
2023/04/14 11:27:42;;;;;;;3.70;1.20;;;;;;;19.81;32.12;100702.69;5084494;28;20092;-61